sensor_id;sensor_type;location;lat;lon;timestamp;P1;durP1;ratioP1;P2;durP2;ratioP2
27670;SDS011;15077;49.704;9.908;2023-05-19T00:01:41;2.80;;;0.57;;
27670;SDS011;15077;49.704;9.908;2023-05-19T00:04:10;2.17;;;0.73;;
27670;SDS011;15077;49.704;9.908;2023-05-19T00:06:39;0.77;;;0.50;;
27670;SDS011;15077;49.704;9.908;2023-05-19T00:09:09;2.17;;;0.60;;
27670;SDS011;15077;49.704;9.908;2023-05-19T00:11:38;1.33;;;0.60;;
27670;SDS011;15077;49.704;9.908;2023-05-19T00:14:05;1.02;;;0.50;;
27670;SDS011;15077;49.704;9.908;2023-05-19T00:16:34;2.75;;;0.80;;
27670;SDS011;15077;49.704;9.908;2023-05-19T00:19:03;1.05;;;0.50;;
27670;SDS011;15077;49.704;9.908;2023-05-19T00:21:31;2.72;;;0.77;;
27670;SDS011;15077;49.704;9.908;2023-05-19T00:23:58;2.35;;;0.82;;
27670;SDS011;15077;49.704;9.908;2023-05-19T00:26:24;1.10;;;0.60;;
27670;SDS011;15077;49.704;9.908;2023-05-19T00:28:51;2.00;;;0.47;;
27670;SDS011;15077;49.704;9.908;2023-05-19T00:31:18;1.08;;;0.45;;
27670;SDS011;15077;49.704;9.908;2023-05-19T00:33:45;1.00;;;0.40;;
27670;SDS011;15077;49.704;9.908;2023-05-19T00:36:11;1.00;;;0.60;;
27670;SDS011;15077;49.704;9.908;2023-05-19T00:38:37;0.82;;;0.52;;
27670;SDS011;15077;49.704;9.908;2023-05-19T00:41:04;0.50;;;0.45;;
27670;SDS011;15077;49.704;9.908;2023-05-19T00:43:32;2.10;;;0.63;;
27670;SDS011;15077;49.704;9.908;2023-05-19T00:46:01;1.85;;;0.77;;
27670;SDS011;15077;49.704;9.908;2023-05-19T00:48:27;0.85;;;0.50;;
27670;SDS011;15077;49.704;9.908;2023-05-19T00:50:54;1.45;;;0.52;;
27670;SDS011;15077;49.704;9.908;2023-05-19T00:53:29;1.30;;;0.57;;
27670;SDS011;15077;49.704;9.908;2023-05-19T00:55:59;1.45;;;0.60;;
27670;SDS011;15077;49.704;9.908;2023-05-19T00:58:32;1.25;;;0.60;;
27670;SDS011;15077;49.704;9.908;2023-05-19T01:01:01;1.30;;;0.50;;
27670;SDS011;15077;49.704;9.908;2023-05-19T01:03:31;2.15;;;0.75;;
27670;SDS011;15077;49.704;9.908;2023-05-19T01:06:00;3.63;;;0.73;;
27670;SDS011;15077;49.704;9.908;2023-05-19T01:10:59;1.60;;;0.65;;
27670;SDS011;15077;49.704;9.908;2023-05-19T01:13:26;0.95;;;0.60;;
27670;SDS011;15077;49.704;9.908;2023-05-19T01:16:04;0.65;;;0.40;;
27670;SDS011;15077;49.704;9.908;2023-05-19T01:18:42;1.60;;;0.50;;
27670;SDS011;15077;49.704;9.908;2023-05-19T01:31:20;2.17;;;0.70;;
27670;SDS011;15077;49.704;9.908;2023-05-19T01:33:49;1.02;;;0.57;;
27670;SDS011;15077;49.704;9.908;2023-05-19T01:36:19;0.65;;;0.50;;
27670;SDS011;15077;49.704;9.908;2023-05-19T01:38:50;1.25;;;0.70;;
27670;SDS011;15077;49.704;9.908;2023-05-19T01:41:21;1.67;;;0.80;;
27670;SDS011;15077;49.704;9.908;2023-05-19T01:43:51;2.05;;;0.63;;
27670;SDS011;15077;49.704;9.908;2023-05-19T01:46:19;1.17;;;0.77;;
27670;SDS011;15077;49.704;9.908;2023-05-19T01:48:48;1.40;;;0.70;;
27670;SDS011;15077;49.704;9.908;2023-05-19T01:51:14;0.82;;;0.45;;
27670;SDS011;15077;49.704;9.908;2023-05-19T01:53:40;2.25;;;0.60;;
27670;SDS011;15077;49.704;9.908;2023-05-19T01:56:05;5.03;;;1.15;;
27670;SDS011;15077;49.704;9.908;2023-05-19T01:58:45;1.58;;;0.73;;
27670;SDS011;15077;49.704;9.908;2023-05-19T02:04:36;0.70;;;0.43;;
27670;SDS011;15077;49.704;9.908;2023-05-19T02:10:10;1.98;;;0.50;;
27670;SDS011;15077;49.704;9.908;2023-05-19T02:12:47;1.98;;;0.60;;
27670;SDS011;15077;49.704;9.908;2023-05-19T02:15:23;1.13;;;0.52;;
27670;SDS011;15077;49.704;9.908;2023-05-19T02:17:59;1.25;;;0.77;;
27670;SDS011;15077;49.704;9.908;2023-05-19T02:20:28;1.35;;;0.57;;
27670;SDS011;15077;49.704;9.908;2023-05-19T02:22:55;2.33;;;0.65;;
27670;SDS011;15077;49.704;9.908;2023-05-19T02:25:23;1.05;;;0.65;;
27670;SDS011;15077;49.704;9.908;2023-05-19T02:27:51;1.75;;;0.68;;
27670;SDS011;15077;49.704;9.908;2023-05-19T02:30:20;2.88;;;0.80;;
27670;SDS011;15077;49.704;9.908;2023-05-19T02:32:48;2.70;;;0.88;;
27670;SDS011;15077;49.704;9.908;2023-05-19T02:35:18;2.42;;;1.02;;
27670;SDS011;15077;49.704;9.908;2023-05-19T02:37:45;3.08;;;0.90;;
27670;SDS011;15077;49.704;9.908;2023-05-19T02:40:13;1.23;;;0.50;;
27670;SDS011;15077;49.704;9.908;2023-05-19T02:42:44;1.07;;;0.60;;
27670;SDS011;15077;49.704;9.908;2023-05-19T02:45:11;1.45;;;0.75;;
27670;SDS011;15077;49.704;9.908;2023-05-19T02:47:37;2.22;;;0.75;;
27670;SDS011;15077;49.704;9.908;2023-05-19T02:50:05;1.83;;;0.73;;
27670;SDS011;15077;49.704;9.908;2023-05-19T02:52:33;1.77;;;0.77;;
27670;SDS011;15077;49.704;9.908;2023-05-19T02:54:59;2.85;;;0.80;;
27670;SDS011;15077;49.704;9.908;2023-05-19T02:57:24;0.85;;;0.60;;
27670;SDS011;15077;49.704;9.908;2023-05-19T02:59:54;2.95;;;0.73;;
27670;SDS011;15077;49.704;9.908;2023-05-19T03:02:21;1.55;;;0.80;;
27670;SDS011;15077;49.704;9.908;2023-05-19T03:04:48;1.52;;;0.73;;
27670;SDS011;15077;49.704;9.908;2023-05-19T03:07:14;1.30;;;0.80;;
27670;SDS011;15077;49.704;9.908;2023-05-19T03:09:40;3.15;;;0.90;;
27670;SDS011;15077;49.704;9.908;2023-05-19T03:12:06;1.98;;;0.70;;
27670;SDS011;15077;49.704;9.908;2023-05-19T03:14:33;1.17;;;0.70;;
27670;SDS011;15077;49.704;9.908;2023-05-19T03:17:03;0.90;;;0.53;;
27670;SDS011;15077;49.704;9.908;2023-05-19T03:19:31;1.70;;;0.70;;
27670;SDS011;15077;49.704;9.908;2023-05-19T03:21:58;2.00;;;1.17;;
27670;SDS011;15077;49.704;9.908;2023-05-19T03:24:25;1.17;;;0.70;;
27670;SDS011;15077;49.704;9.908;2023-05-19T03:26:50;1.75;;;0.60;;
27670;SDS011;15077;49.704;9.908;2023-05-19T03:29:16;1.27;;;0.77;;
27670;SDS011;15077;49.704;9.908;2023-05-19T03:31:42;2.40;;;0.60;;
27670;SDS011;15077;49.704;9.908;2023-05-19T03:34:08;3.50;;;1.30;;
27670;SDS011;15077;49.704;9.908;2023-05-19T03:36:36;3.83;;;0.90;;
27670;SDS011;15077;49.704;9.908;2023-05-19T03:39:04;1.80;;;0.98;;
27670;SDS011;15077;49.704;9.908;2023-05-19T03:41:30;2.33;;;0.70;;
27670;SDS011;15077;49.704;9.908;2023-05-19T03:43:57;1.40;;;0.80;;
27670;SDS011;15077;49.704;9.908;2023-05-19T03:46:24;1.20;;;0.80;;
27670;SDS011;15077;49.704;9.908;2023-05-19T03:48:50;3.08;;;1.10;;
27670;SDS011;15077;49.704;9.908;2023-05-19T03:51:16;3.17;;;0.80;;
27670;SDS011;15077;49.704;9.908;2023-05-19T03:53:42;2.75;;;1.10;;
27670;SDS011;15077;49.704;9.908;2023-05-19T03:56:09;2.63;;;0.70;;
27670;SDS011;15077;49.704;9.908;2023-05-19T03:58:38;2.42;;;0.98;;
27670;SDS011;15077;49.704;9.908;2023-05-19T04:01:08;1.52;;;0.60;;
27670;SDS011;15077;49.704;9.908;2023-05-19T04:03:35;2.25;;;0.90;;
27670;SDS011;15077;49.704;9.908;2023-05-19T04:06:01;2.47;;;1.00;;
27670;SDS011;15077;49.704;9.908;2023-05-19T04:08:27;2.47;;;0.88;;
27670;SDS011;15077;49.704;9.908;2023-05-19T04:10:53;1.25;;;0.70;;
27670;SDS011;15077;49.704;9.908;2023-05-19T04:13:19;1.95;;;0.85;;
27670;SDS011;15077;49.704;9.908;2023-05-19T04:15:45;1.65;;;0.80;;
27670;SDS011;15077;49.704;9.908;2023-05-19T04:18:11;2.78;;;0.82;;
27670;SDS011;15077;49.704;9.908;2023-05-19T04:20:37;2.70;;;0.93;;
27670;SDS011;15077;49.704;9.908;2023-05-19T04:23:02;3.25;;;1.45;;
27670;SDS011;15077;49.704;9.908;2023-05-19T04:25:28;1.83;;;0.95;;
27670;SDS011;15077;49.704;9.908;2023-05-19T04:27:54;3.85;;;0.98;;
27670;SDS011;15077;49.704;9.908;2023-05-19T04:30:22;1.60;;;0.70;;
27670;SDS011;15077;49.704;9.908;2023-05-19T04:32:48;1.30;;;0.80;;
27670;SDS011;15077;49.704;9.908;2023-05-19T04:35:14;1.90;;;0.70;;
27670;SDS011;15077;49.704;9.908;2023-05-19T04:37:42;2.30;;;0.63;;
27670;SDS011;15077;49.704;9.908;2023-05-19T04:40:10;1.95;;;0.88;;
27670;SDS011;15077;49.704;9.908;2023-05-19T04:42:39;2.40;;;0.82;;
27670;SDS011;15077;49.704;9.908;2023-05-19T04:45:07;5.05;;;1.08;;
27670;SDS011;15077;49.704;9.908;2023-05-19T04:47:34;1.38;;;0.63;;
27670;SDS011;15077;49.704;9.908;2023-05-19T04:50:03;2.72;;;1.13;;
27670;SDS011;15077;49.704;9.908;2023-05-19T04:52:29;2.83;;;0.88;;
27670;SDS011;15077;49.704;9.908;2023-05-19T04:54:55;3.22;;;1.08;;
27670;SDS011;15077;49.704;9.908;2023-05-19T04:57:21;3.72;;;1.00;;
27670;SDS011;15077;49.704;9.908;2023-05-19T04:59:47;1.85;;;0.90;;
27670;SDS011;15077;49.704;9.908;2023-05-19T05:02:13;1.67;;;0.70;;
27670;SDS011;15077;49.704;9.908;2023-05-19T05:04:39;1.10;;;0.60;;
27670;SDS011;15077;49.704;9.908;2023-05-19T05:07:08;2.95;;;0.80;;
27670;SDS011;15077;49.704;9.908;2023-05-19T05:09:34;3.42;;;0.90;;
27670;SDS011;15077;49.704;9.908;2023-05-19T05:12:00;2.03;;;0.75;;
27670;SDS011;15077;49.704;9.908;2023-05-19T05:14:28;1.20;;;0.77;;
27670;SDS011;15077;49.704;9.908;2023-05-19T05:16:54;2.90;;;0.90;;
27670;SDS011;15077;49.704;9.908;2023-05-19T05:19:20;2.88;;;0.90;;
27670;SDS011;15077;49.704;9.908;2023-05-19T05:21:47;1.50;;;0.70;;
27670;SDS011;15077;49.704;9.908;2023-05-19T05:24:13;2.35;;;0.70;;
27670;SDS011;15077;49.704;9.908;2023-05-19T05:26:39;3.05;;;1.27;;
27670;SDS011;15077;49.704;9.908;2023-05-19T05:29:06;2.50;;;0.90;;
27670;SDS011;15077;49.704;9.908;2023-05-19T05:31:33;1.35;;;0.90;;
27670;SDS011;15077;49.704;9.908;2023-05-19T05:34:00;2.35;;;1.00;;
27670;SDS011;15077;49.704;9.908;2023-05-19T05:36:26;2.08;;;0.90;;
27670;SDS011;15077;49.704;9.908;2023-05-19T05:38:52;1.58;;;1.20;;
27670;SDS011;15077;49.704;9.908;2023-05-19T05:41:18;3.28;;;1.15;;
27670;SDS011;15077;49.704;9.908;2023-05-19T05:43:44;2.35;;;1.20;;
27670;SDS011;15077;49.704;9.908;2023-05-19T05:46:09;5.15;;;1.23;;
27670;SDS011;15077;49.704;9.908;2023-05-19T05:48:35;4.78;;;1.65;;
27670;SDS011;15077;49.704;9.908;2023-05-19T05:51:01;2.83;;;1.30;;
27670;SDS011;15077;49.704;9.908;2023-05-19T05:53:28;2.80;;;1.35;;
27670;SDS011;15077;49.704;9.908;2023-05-19T05:55:58;3.05;;;1.30;;
27670;SDS011;15077;49.704;9.908;2023-05-19T05:58:24;2.85;;;1.70;;
27670;SDS011;15077;49.704;9.908;2023-05-19T06:00:50;1.60;;;1.10;;
27670;SDS011;15077;49.704;9.908;2023-05-19T06:03:17;2.88;;;1.80;;
27670;SDS011;15077;49.704;9.908;2023-05-19T06:05:45;6.75;;;1.52;;
27670;SDS011;15077;49.704;9.908;2023-05-19T06:08:11;1.60;;;0.95;;
27670;SDS011;15077;49.704;9.908;2023-05-19T06:10:37;1.80;;;1.20;;
27670;SDS011;15077;49.704;9.908;2023-05-19T06:13:05;5.25;;;1.83;;
27670;SDS011;15077;49.704;9.908;2023-05-19T06:15:31;3.40;;;1.67;;
27670;SDS011;15077;49.704;9.908;2023-05-19T06:17:56;3.03;;;1.10;;
27670;SDS011;15077;49.704;9.908;2023-05-19T06:20:22;3.88;;;1.70;;
27670;SDS011;15077;49.704;9.908;2023-05-19T06:22:48;2.45;;;1.02;;
27670;SDS011;15077;49.704;9.908;2023-05-19T06:25:14;4.53;;;1.80;;
27670;SDS011;15077;49.704;9.908;2023-05-19T06:27:40;2.97;;;1.50;;
27670;SDS011;15077;49.704;9.908;2023-05-19T06:30:06;6.38;;;2.75;;
27670;SDS011;15077;49.704;9.908;2023-05-19T06:32:33;7.43;;;2.58;;
27670;SDS011;15077;49.704;9.908;2023-05-19T06:34:58;5.35;;;2.05;;
27670;SDS011;15077;49.704;9.908;2023-05-19T06:37:24;5.97;;;3.00;;
27670;SDS011;15077;49.704;9.908;2023-05-19T06:39:50;3.50;;;1.80;;
27670;SDS011;15077;49.704;9.908;2023-05-19T06:42:20;11.95;;;2.30;;
27670;SDS011;15077;49.704;9.908;2023-05-19T06:44:48;8.27;;;2.75;;
27670;SDS011;15077;49.704;9.908;2023-05-19T06:47:14;5.65;;;2.35;;
27670;SDS011;15077;49.704;9.908;2023-05-19T06:49:41;5.50;;;2.45;;
27670;SDS011;15077;49.704;9.908;2023-05-19T06:52:08;4.78;;;1.98;;
27670;SDS011;15077;49.704;9.908;2023-05-19T06:54:35;6.82;;;2.05;;
27670;SDS011;15077;49.704;9.908;2023-05-19T06:57:02;9.10;;;3.25;;
27670;SDS011;15077;49.704;9.908;2023-05-19T06:59:28;4.68;;;2.40;;
27670;SDS011;15077;49.704;9.908;2023-05-19T07:01:54;6.47;;;2.08;;
27670;SDS011;15077;49.704;9.908;2023-05-19T07:04:20;5.10;;;2.50;;
27670;SDS011;15077;49.704;9.908;2023-05-19T07:06:45;5.75;;;2.67;;
27670;SDS011;15077;49.704;9.908;2023-05-19T07:09:11;7.00;;;2.85;;
27670;SDS011;15077;49.704;9.908;2023-05-19T07:11:37;3.58;;;2.25;;
27670;SDS011;15077;49.704;9.908;2023-05-19T07:14:03;4.38;;;2.30;;
27670;SDS011;15077;49.704;9.908;2023-05-19T07:16:29;7.35;;;2.25;;
27670;SDS011;15077;49.704;9.908;2023-05-19T07:18:55;5.43;;;2.58;;
27670;SDS011;15077;49.704;9.908;2023-05-19T07:21:20;4.03;;;2.38;;
27670;SDS011;15077;49.704;9.908;2023-05-19T07:23:46;4.78;;;2.10;;
27670;SDS011;15077;49.704;9.908;2023-05-19T07:26:12;5.10;;;2.65;;
27670;SDS011;15077;49.704;9.908;2023-05-19T07:28:37;6.38;;;2.05;;
27670;SDS011;15077;49.704;9.908;2023-05-19T07:31:03;5.47;;;2.70;;
27670;SDS011;15077;49.704;9.908;2023-05-19T07:33:29;6.05;;;2.33;;
27670;SDS011;15077;49.704;9.908;2023-05-19T07:35:55;6.60;;;2.15;;
27670;SDS011;15077;49.704;9.908;2023-05-19T07:38:20;4.88;;;2.58;;
27670;SDS011;15077;49.704;9.908;2023-05-19T07:40:46;4.10;;;2.30;;
27670;SDS011;15077;49.704;9.908;2023-05-19T07:43:12;4.78;;;2.35;;
27670;SDS011;15077;49.704;9.908;2023-05-19T07:45:38;5.38;;;2.42;;
27670;SDS011;15077;49.704;9.908;2023-05-19T07:48:04;5.70;;;2.28;;
27670;SDS011;15077;49.704;9.908;2023-05-19T07:50:29;5.75;;;2.63;;
27670;SDS011;15077;49.704;9.908;2023-05-19T07:52:56;5.32;;;2.50;;
27670;SDS011;15077;49.704;9.908;2023-05-19T07:55:22;4.35;;;2.33;;
27670;SDS011;15077;49.704;9.908;2023-05-19T07:57:48;10.32;;;2.58;;
27670;SDS011;15077;49.704;9.908;2023-05-19T08:00:14;6.75;;;2.15;;
27670;SDS011;15077;49.704;9.908;2023-05-19T08:02:41;5.80;;;2.40;;
27670;SDS011;15077;49.704;9.908;2023-05-19T08:05:08;7.10;;;3.08;;
27670;SDS011;15077;49.704;9.908;2023-05-19T08:07:34;6.22;;;2.38;;
27670;SDS011;15077;49.704;9.908;2023-05-19T08:10:00;7.10;;;2.45;;
27670;SDS011;15077;49.704;9.908;2023-05-19T08:12:27;4.57;;;2.55;;
27670;SDS011;15077;49.704;9.908;2023-05-19T08:14:53;5.88;;;2.63;;
27670;SDS011;15077;49.704;9.908;2023-05-19T08:17:18;4.70;;;2.22;;
27670;SDS011;15077;49.704;9.908;2023-05-19T08:19:44;6.18;;;2.10;;
27670;SDS011;15077;49.704;9.908;2023-05-19T08:22:10;5.50;;;2.88;;
27670;SDS011;15077;49.704;9.908;2023-05-19T08:24:36;4.75;;;2.40;;
27670;SDS011;15077;49.704;9.908;2023-05-19T08:27:02;7.28;;;2.90;;
27670;SDS011;15077;49.704;9.908;2023-05-19T08:29:29;4.18;;;2.53;;
27670;SDS011;15077;49.704;9.908;2023-05-19T08:31:54;6.30;;;2.63;;
27670;SDS011;15077;49.704;9.908;2023-05-19T08:34:22;10.13;;;3.25;;
27670;SDS011;15077;49.704;9.908;2023-05-19T08:36:48;7.90;;;2.60;;
27670;SDS011;15077;49.704;9.908;2023-05-19T08:39:14;5.85;;;2.72;;
27670;SDS011;15077;49.704;9.908;2023-05-19T08:41:42;3.00;;;2.13;;
27670;SDS011;15077;49.704;9.908;2023-05-19T08:44:08;4.32;;;2.17;;
27670;SDS011;15077;49.704;9.908;2023-05-19T08:46:34;5.45;;;2.30;;
27670;SDS011;15077;49.704;9.908;2023-05-19T08:49:09;5.30;;;2.33;;
27670;SDS011;15077;49.704;9.908;2023-05-19T08:51:38;4.10;;;2.20;;
27670;SDS011;15077;49.704;9.908;2023-05-19T08:54:15;6.07;;;2.53;;
27670;SDS011;15077;49.704;9.908;2023-05-19T08:56:43;4.65;;;1.95;;
27670;SDS011;15077;49.704;9.908;2023-05-19T08:59:10;7.22;;;2.60;;
27670;SDS011;15077;49.704;9.908;2023-05-19T09:01:41;3.78;;;2.47;;
27670;SDS011;15077;49.704;9.908;2023-05-19T09:04:10;5.40;;;2.45;;
27670;SDS011;15077;49.704;9.908;2023-05-19T09:06:36;5.90;;;2.25;;
27670;SDS011;15077;49.704;9.908;2023-05-19T09:09:05;7.05;;;2.42;;
27670;SDS011;15077;49.704;9.908;2023-05-19T09:11:32;8.10;;;3.00;;
27670;SDS011;15077;49.704;9.908;2023-05-19T09:14:01;7.72;;;2.72;;
27670;SDS011;15077;49.704;9.908;2023-05-19T09:16:28;5.63;;;2.53;;
27670;SDS011;15077;49.704;9.908;2023-05-19T09:18:57;6.68;;;2.85;;
27670;SDS011;15077;49.704;9.908;2023-05-19T09:21:28;3.90;;;2.25;;
27670;SDS011;15077;49.704;9.908;2023-05-19T09:23:55;4.32;;;2.67;;
27670;SDS011;15077;49.704;9.908;2023-05-19T09:26:23;5.13;;;2.42;;
27670;SDS011;15077;49.704;9.908;2023-05-19T09:28:49;6.03;;;2.40;;
27670;SDS011;15077;49.704;9.908;2023-05-19T09:31:15;10.90;;;3.67;;
27670;SDS011;15077;49.704;9.908;2023-05-19T09:33:41;5.97;;;2.78;;
27670;SDS011;15077;49.704;9.908;2023-05-19T09:36:07;4.88;;;2.28;;
27670;SDS011;15077;49.704;9.908;2023-05-19T09:38:35;5.95;;;2.53;;
27670;SDS011;15077;49.704;9.908;2023-05-19T09:41:02;5.55;;;2.17;;
27670;SDS011;15077;49.704;9.908;2023-05-19T09:43:30;5.72;;;2.88;;
27670;SDS011;15077;49.704;9.908;2023-05-19T09:46:04;8.63;;;2.90;;
27670;SDS011;15077;49.704;9.908;2023-05-19T09:48:35;5.03;;;2.33;;
27670;SDS011;15077;49.704;9.908;2023-05-19T09:51:06;6.05;;;2.50;;
27670;SDS011;15077;49.704;9.908;2023-05-19T09:53:34;6.85;;;2.88;;
27670;SDS011;15077;49.704;9.908;2023-05-19T09:56:00;7.03;;;2.70;;
27670;SDS011;15077;49.704;9.908;2023-05-19T09:58:33;5.25;;;2.58;;
27670;SDS011;15077;49.704;9.908;2023-05-19T10:01:00;10.30;;;2.50;;
27670;SDS011;15077;49.704;9.908;2023-05-19T10:03:26;4.47;;;2.20;;
27670;SDS011;15077;49.704;9.908;2023-05-19T10:05:53;5.38;;;2.10;;
27670;SDS011;15077;49.704;9.908;2023-05-19T10:08:20;4.60;;;2.33;;
27670;SDS011;15077;49.704;9.908;2023-05-19T10:10:48;4.88;;;2.08;;
27670;SDS011;15077;49.704;9.908;2023-05-19T10:13:14;5.88;;;2.65;;
27670;SDS011;15077;49.704;9.908;2023-05-19T10:15:40;5.63;;;2.30;;
27670;SDS011;15077;49.704;9.908;2023-05-19T10:18:10;6.15;;;2.53;;
27670;SDS011;15077;49.704;9.908;2023-05-19T10:20:39;5.75;;;2.30;;
27670;SDS011;15077;49.704;9.908;2023-05-19T10:23:06;5.05;;;2.42;;
27670;SDS011;15077;49.704;9.908;2023-05-19T10:25:32;5.38;;;2.47;;
27670;SDS011;15077;49.704;9.908;2023-05-19T10:28:07;6.50;;;1.98;;
27670;SDS011;15077;49.704;9.908;2023-05-19T10:30:43;4.25;;;2.53;;
27670;SDS011;15077;49.704;9.908;2023-05-19T10:33:14;5.40;;;2.83;;
27670;SDS011;15077;49.704;9.908;2023-05-19T10:35:55;5.25;;;2.60;;
27670;SDS011;15077;49.704;9.908;2023-05-19T10:38:55;6.32;;;2.30;;
27670;SDS011;15077;49.704;9.908;2023-05-19T10:44:36;5.68;;;2.30;;
27670;SDS011;15077;49.704;9.908;2023-05-19T10:47:27;4.63;;;2.15;;
27670;SDS011;15077;49.704;9.908;2023-05-19T10:49:54;4.85;;;1.90;;
27670;SDS011;15077;49.704;9.908;2023-05-19T10:52:23;5.55;;;2.40;;
27670;SDS011;15077;49.704;9.908;2023-05-19T10:54:54;4.13;;;1.75;;
27670;SDS011;15077;49.704;9.908;2023-05-19T10:57:26;3.63;;;2.05;;
27670;SDS011;15077;49.704;9.908;2023-05-19T10:59:54;4.32;;;1.75;;
27670;SDS011;15077;49.704;9.908;2023-05-19T11:05:10;4.20;;;2.22;;
27670;SDS011;15077;49.704;9.908;2023-05-19T11:07:55;2.60;;;1.63;;
27670;SDS011;15077;49.704;9.908;2023-05-19T11:10:30;2.92;;;1.58;;
27670;SDS011;15077;49.704;9.908;2023-05-19T11:12:56;5.18;;;1.50;;
27670;SDS011;15077;49.704;9.908;2023-05-19T11:15:25;5.85;;;1.60;;
27670;SDS011;15077;49.704;9.908;2023-05-19T11:17:52;2.60;;;1.77;;
27670;SDS011;15077;49.704;9.908;2023-05-19T11:20:19;5.82;;;1.70;;
27670;SDS011;15077;49.704;9.908;2023-05-19T11:23:08;4.38;;;1.67;;
27670;SDS011;15077;49.704;9.908;2023-05-19T11:25:40;3.47;;;1.33;;
27670;SDS011;15077;49.704;9.908;2023-05-19T11:28:09;2.72;;;1.45;;
27670;SDS011;15077;49.704;9.908;2023-05-19T11:30:41;4.28;;;1.58;;
27670;SDS011;15077;49.704;9.908;2023-05-19T11:33:09;3.87;;;1.63;;
27670;SDS011;15077;49.704;9.908;2023-05-19T11:35:37;3.30;;;1.80;;
27670;SDS011;15077;49.704;9.908;2023-05-19T11:38:04;4.78;;;1.60;;
27670;SDS011;15077;49.704;9.908;2023-05-19T11:40:32;3.35;;;1.95;;
27670;SDS011;15077;49.704;9.908;2023-05-19T11:42:58;4.07;;;2.05;;
27670;SDS011;15077;49.704;9.908;2023-05-19T11:45:26;2.90;;;1.58;;
27670;SDS011;15077;49.704;9.908;2023-05-19T11:47:56;2.97;;;1.83;;
27670;SDS011;15077;49.704;9.908;2023-05-19T11:50:23;2.88;;;2.08;;
27670;SDS011;15077;49.704;9.908;2023-05-19T11:52:50;3.33;;;2.10;;
27670;SDS011;15077;49.704;9.908;2023-05-19T11:55:18;5.00;;;2.20;;
27670;SDS011;15077;49.704;9.908;2023-05-19T12:00:26;3.20;;;2.03;;
27670;SDS011;15077;49.704;9.908;2023-05-19T12:02:54;5.82;;;1.98;;
27670;SDS011;15077;49.704;9.908;2023-05-19T12:05:24;4.28;;;2.13;;
27670;SDS011;15077;49.704;9.908;2023-05-19T12:07:52;2.47;;;1.83;;
27670;SDS011;15077;49.704;9.908;2023-05-19T12:10:29;4.78;;;2.42;;
27670;SDS011;15077;49.704;9.908;2023-05-19T12:12:56;3.33;;;1.65;;
27670;SDS011;15077;49.704;9.908;2023-05-19T12:15:22;2.97;;;1.88;;
27670;SDS011;15077;49.704;9.908;2023-05-19T12:17:56;3.83;;;1.95;;
27670;SDS011;15077;49.704;9.908;2023-05-19T12:20:24;3.78;;;1.80;;
27670;SDS011;15077;49.704;9.908;2023-05-19T12:22:51;4.65;;;1.90;;
27670;SDS011;15077;49.704;9.908;2023-05-19T12:25:19;3.55;;;2.03;;
27670;SDS011;15077;49.704;9.908;2023-05-19T12:27:46;3.83;;;1.65;;
27670;SDS011;15077;49.704;9.908;2023-05-19T12:30:13;4.18;;;1.92;;
27670;SDS011;15077;49.704;9.908;2023-05-19T12:32:40;5.05;;;1.67;;
27670;SDS011;15077;49.704;9.908;2023-05-19T12:35:07;2.85;;;1.50;;
27670;SDS011;15077;49.704;9.908;2023-05-19T12:37:34;3.92;;;1.80;;
27670;SDS011;15077;49.704;9.908;2023-05-19T12:40:06;3.13;;;1.87;;
27670;SDS011;15077;49.704;9.908;2023-05-19T12:42:33;2.40;;;1.40;;
27670;SDS011;15077;49.704;9.908;2023-05-19T12:45:01;2.05;;;1.48;;
27670;SDS011;15077;49.704;9.908;2023-05-19T12:47:34;2.70;;;1.73;;
27670;SDS011;15077;49.704;9.908;2023-05-19T12:50:04;3.20;;;1.80;;
27670;SDS011;15077;49.704;9.908;2023-05-19T12:52:40;2.63;;;1.75;;
27670;SDS011;15077;49.704;9.908;2023-05-19T12:55:08;2.53;;;1.42;;
27670;SDS011;15077;49.704;9.908;2023-05-19T12:57:36;4.30;;;1.58;;
27670;SDS011;15077;49.704;9.908;2023-05-19T13:00:05;1.92;;;1.42;;
27670;SDS011;15077;49.704;9.908;2023-05-19T13:10:31;2.20;;;1.60;;
27670;SDS011;15077;49.704;9.908;2023-05-19T13:12:59;5.22;;;1.80;;
27670;SDS011;15077;49.704;9.908;2023-05-19T13:15:26;5.68;;;1.20;;
27670;SDS011;15077;49.704;9.908;2023-05-19T13:17:58;1.73;;;0.93;;
27670;SDS011;15077;49.704;9.908;2023-05-19T13:20:26;3.08;;;1.50;;
27670;SDS011;15077;49.704;9.908;2023-05-19T13:22:52;3.05;;;1.50;;
27670;SDS011;15077;49.704;9.908;2023-05-19T13:25:18;2.95;;;1.30;;
27670;SDS011;15077;49.704;9.908;2023-05-19T13:27:44;3.45;;;1.23;;
27670;SDS011;15077;49.704;9.908;2023-05-19T13:30:11;1.50;;;1.40;;
27670;SDS011;15077;49.704;9.908;2023-05-19T13:32:36;4.00;;;1.48;;
27670;SDS011;15077;49.704;9.908;2023-05-19T13:35:02;2.13;;;1.08;;
27670;SDS011;15077;49.704;9.908;2023-05-19T13:37:29;16.02;;;2.35;;
27670;SDS011;15077;49.704;9.908;2023-05-19T13:39:54;5.13;;;1.67;;
27670;SDS011;15077;49.704;9.908;2023-05-19T13:42:21;2.50;;;1.50;;
27670;SDS011;15077;49.704;9.908;2023-05-19T13:44:47;2.35;;;1.20;;
27670;SDS011;15077;49.704;9.908;2023-05-19T13:47:13;4.18;;;1.70;;
27670;SDS011;15077;49.704;9.908;2023-05-19T13:49:39;4.15;;;1.60;;
27670;SDS011;15077;49.704;9.908;2023-05-19T13:52:06;3.35;;;1.60;;
27670;SDS011;15077;49.704;9.908;2023-05-19T13:54:31;4.50;;;1.65;;
27670;SDS011;15077;49.704;9.908;2023-05-19T13:56:58;2.08;;;1.10;;
27670;SDS011;15077;49.704;9.908;2023-05-19T13:59:24;3.00;;;1.40;;
27670;SDS011;15077;49.704;9.908;2023-05-19T14:01:50;4.00;;;1.65;;
27670;SDS011;15077;49.704;9.908;2023-05-19T14:04:16;2.50;;;1.40;;
27670;SDS011;15077;49.704;9.908;2023-05-19T14:06:43;2.33;;;1.20;;
27670;SDS011;15077;49.704;9.908;2023-05-19T14:09:10;4.70;;;1.70;;
27670;SDS011;15077;49.704;9.908;2023-05-19T14:11:36;2.60;;;1.45;;
27670;SDS011;15077;49.704;9.908;2023-05-19T14:14:02;1.90;;;1.30;;
27670;SDS011;15077;49.704;9.908;2023-05-19T14:16:28;2.67;;;1.63;;
27670;SDS011;15077;49.704;9.908;2023-05-19T14:18:54;4.88;;;1.50;;
27670;SDS011;15077;49.704;9.908;2023-05-19T14:21:20;3.92;;;1.30;;
27670;SDS011;15077;49.704;9.908;2023-05-19T14:23:46;2.38;;;1.63;;
27670;SDS011;15077;49.704;9.908;2023-05-19T14:26:12;3.05;;;1.40;;
27670;SDS011;15077;49.704;9.908;2023-05-19T14:28:38;4.28;;;1.63;;
27670;SDS011;15077;49.704;9.908;2023-05-19T14:31:04;4.55;;;2.20;;
27670;SDS011;15077;49.704;9.908;2023-05-19T14:33:31;3.45;;;1.60;;
27670;SDS011;15077;49.704;9.908;2023-05-19T14:35:56;4.05;;;1.95;;
27670;SDS011;15077;49.704;9.908;2023-05-19T14:38:24;2.67;;;1.60;;
27670;SDS011;15077;49.704;9.908;2023-05-19T14:40:50;2.40;;;1.55;;
27670;SDS011;15077;49.704;9.908;2023-05-19T14:43:16;3.95;;;1.52;;
27670;SDS011;15077;49.704;9.908;2023-05-19T14:45:42;2.67;;;2.03;;
27670;SDS011;15077;49.704;9.908;2023-05-19T14:48:08;2.95;;;2.30;;
27670;SDS011;15077;49.704;9.908;2023-05-19T14:50:37;3.83;;;1.85;;
27670;SDS011;15077;49.704;9.908;2023-05-19T14:53:03;3.15;;;1.55;;
27670;SDS011;15077;49.704;9.908;2023-05-19T14:55:29;2.08;;;1.40;;
27670;SDS011;15077;49.704;9.908;2023-05-19T14:57:55;2.85;;;1.70;;
27670;SDS011;15077;49.704;9.908;2023-05-19T15:00:21;2.00;;;1.23;;
27670;SDS011;15077;49.704;9.908;2023-05-19T15:02:47;2.55;;;1.58;;
27670;SDS011;15077;49.704;9.908;2023-05-19T15:05:13;2.92;;;1.30;;
27670;SDS011;15077;49.704;9.908;2023-05-19T15:07:40;2.47;;;1.38;;
27670;SDS011;15077;49.704;9.908;2023-05-19T15:10:06;3.70;;;1.27;;
27670;SDS011;15077;49.704;9.908;2023-05-19T15:12:33;2.08;;;1.17;;
27670;SDS011;15077;49.704;9.908;2023-05-19T15:14:59;2.13;;;1.30;;
27670;SDS011;15077;49.704;9.908;2023-05-19T15:17:25;2.90;;;1.67;;
27670;SDS011;15077;49.704;9.908;2023-05-19T15:19:51;2.20;;;1.40;;
27670;SDS011;15077;49.704;9.908;2023-05-19T15:22:17;3.22;;;1.55;;
27670;SDS011;15077;49.704;9.908;2023-05-19T15:24:42;2.95;;;2.03;;
27670;SDS011;15077;49.704;9.908;2023-05-19T15:27:08;2.55;;;1.60;;